createdAt,value
2019-03-26T09:56:05.811Z,39.20
2019-03-26T09:58:35.282Z,38.30
2019-03-26T10:01:05.181Z,38.80
2019-03-26T10:03:45.370Z,38.00
2019-03-26T10:07:04.270Z,38.00
2019-03-26T10:10:17.291Z,37.60
2019-03-26T10:13:07.653Z,36.90
2019-03-26T10:15:35.837Z,36.40
2019-03-26T10:18:03.974Z,36.90
2019-03-26T10:20:32.821Z,37.20
2019-03-26T10:33:52.823Z,36.60
2019-03-26T10:34:31.987Z,35.00
2019-03-26T10:37:03.671Z,34.70
2019-03-26T10:40:10.778Z,35.20
2019-03-26T10:42:40.334Z,34.30
2019-03-26T10:45:18.266Z,33.60
2019-03-26T10:47:46.520Z,33.90
2019-03-26T10:50:14.795Z,34.30
2019-03-26T10:52:42.959Z,34.70
2019-03-26T10:55:11.212Z,33.90
2019-03-26T10:57:39.369Z,34.10
2019-03-26T11:00:08.092Z,34.50
2019-03-26T11:02:36.246Z,35.00
2019-03-26T11:05:05.203Z,34.40
2019-03-26T11:07:33.693Z,34.70
2019-03-26T11:10:02.008Z,34.20
2019-03-26T11:12:31.730Z,34.40
2019-03-26T11:15:00.020Z,34.10
2019-03-26T11:17:28.255Z,34.90
2019-03-26T11:19:56.441Z,34.30
2019-03-26T11:22:24.690Z,33.90
2019-03-26T11:24:52.926Z,34.30
2019-03-26T11:30:38.788Z,33.50
2019-03-26T11:36:53.165Z,33.50
2019-03-26T11:42:48.547Z,32.60
2019-03-26T11:49:43.148Z,33.20
2019-03-26T11:52:35.877Z,34.20
2019-03-26T11:55:28.203Z,32.70
2019-03-26T12:01:02.399Z,33.70
2019-03-26T12:03:34.001Z,33.10
2019-03-26T12:06:30.026Z,33.30
2019-03-26T12:09:51.120Z,33.50
2019-03-26T12:12:59.989Z,33.50
2019-03-26T12:16:09.469Z,33.10
2019-03-26T12:18:49.327Z,33.50
2019-03-26T12:22:07.331Z,32.90
2019-03-26T12:24:49.179Z,32.50
2019-03-26T12:27:37.114Z,33.10
2019-03-26T12:30:15.185Z,33.10
2019-03-26T12:33:33.658Z,33.20
2019-03-26T12:36:05.827Z,33.20
2019-03-26T12:39:17.168Z,32.70
2019-03-26T12:42:34.827Z,32.30
2019-03-26T12:48:59.138Z,33.80
2019-03-26T12:52:23.004Z,33.70
2019-03-26T12:55:04.844Z,33.20
2019-03-26T13:01:41.236Z,33.20
2019-03-26T13:04:26.313Z,33.40
2019-03-26T13:07:02.033Z,33.10
2019-03-26T13:09:48.725Z,33.20
2019-03-26T13:12:18.061Z,33.20
2019-03-26T13:14:50.625Z,32.60
2019-03-26T13:17:31.343Z,33.00
2019-03-26T13:20:03.237Z,32.30
2019-03-26T13:22:33.369Z,32.50
2019-03-26T13:25:27.053Z,31.80
2019-03-26T13:28:09.280Z,32.40
2019-03-26T13:30:42.366Z,32.80
2019-03-26T13:33:25.771Z,32.40
2019-03-26T13:36:01.917Z,32.20
2019-03-26T13:38:36.299Z,32.10
2019-03-26T13:41:16.250Z,32.40
2019-03-26T13:48:02.141Z,31.20
2019-03-26T13:51:02.432Z,31.90
2019-03-26T13:57:18.664Z,32.60
2019-03-26T14:00:04.582Z,34.40
2019-03-26T14:02:37.630Z,32.20
2019-03-26T14:05:29.693Z,31.80
2019-03-26T14:08:08.743Z,34.40
2019-03-26T14:11:00.133Z,31.70
2019-03-26T14:14:05.534Z,35.20
2019-03-26T14:17:19.850Z,32.60
2019-03-26T14:24:22.538Z,30.90
2019-03-26T14:27:34.346Z,30.70
2019-03-26T14:30:11.608Z,30.40
2019-03-26T14:36:08.237Z,30.00
2019-03-26T14:38:34.757Z,30.10
2019-03-26T14:41:20.223Z,30.60
2019-03-26T14:43:50.813Z,30.60
2019-03-26T14:46:58.406Z,30.30
2019-03-26T14:52:42.470Z,30.50
2019-03-26T14:56:00.253Z,30.10
2019-03-26T14:58:53.488Z,30.60
2019-03-26T15:01:23.262Z,30.00
2019-03-26T15:04:01.196Z,30.50
2019-03-26T15:06:30.432Z,30.70
2019-03-26T15:09:17.116Z,31.80
2019-03-26T15:16:08.643Z,31.10
2019-03-26T15:19:21.997Z,30.20
2019-03-26T15:21:58.120Z,30.30
2019-03-26T15:24:32.981Z,29.50
2019-03-26T15:27:23.809Z,29.10
2019-03-26T15:30:02.017Z,29.80
2019-03-26T15:32:55.745Z,30.10
2019-03-26T15:36:25.312Z,28.80
2019-03-26T15:39:10.415Z,29.70
2019-03-26T15:42:35.568Z,28.80
2019-03-26T15:46:22.576Z,29.60
2019-03-26T15:49:16.560Z,30.00
2019-03-26T15:52:09.385Z,29.70
2019-03-26T15:55:01.471Z,30.20
2019-03-26T15:57:32.027Z,30.00
2019-03-26T16:00:05.908Z,30.20
2019-03-26T16:02:43.844Z,30.10
2019-03-26T16:05:32.245Z,29.90
2019-03-26T16:08:28.747Z,29.60
2019-03-26T16:11:51.924Z,30.00
2019-03-26T16:15:14.867Z,29.20
2019-03-26T16:18:52.070Z,29.70
2019-03-26T16:21:39.565Z,30.50
2019-03-26T16:25:00.367Z,31.10
2019-03-26T16:27:38.334Z,30.90
2019-03-26T16:30:34.105Z,31.20
2019-03-26T16:36:23.430Z,31.60
2019-03-26T16:39:28.802Z,31.80
2019-03-26T16:42:36.949Z,32.00
2019-03-26T16:45:05.472Z,32.00
2019-03-26T16:47:54.465Z,32.80
2019-03-26T16:54:22.327Z,32.90
2019-03-26T16:57:33.301Z,33.40
2019-03-26T17:00:34.532Z,34.60
2019-03-26T17:08:51.728Z,36.50
2019-03-26T17:11:23.306Z,36.60
2019-03-26T17:13:54.590Z,36.60
2019-03-26T17:16:38.697Z,37.00
2019-03-26T17:19:10.220Z,37.20
2019-03-26T17:21:41.111Z,38.00
2019-03-26T17:24:20.500Z,38.30
2019-03-26T17:26:51.114Z,38.50
2019-03-26T17:29:22.327Z,38.80
2019-03-26T17:31:50.672Z,39.00
2019-03-26T17:37:40.359Z,39.30
2019-03-26T17:40:22.072Z,39.30
2019-03-26T17:43:04.660Z,39.50
2019-03-26T17:46:19.541Z,39.60
2019-03-26T17:49:33.101Z,40.10
2019-03-26T17:52:57.929Z,40.10
2019-03-26T17:55:45.518Z,39.50
2019-03-26T17:59:16.776Z,40.00
2019-03-26T18:02:26.502Z,40.00
2019-03-26T18:05:03.719Z,40.10
2019-03-26T18:07:50.993Z,40.10
2019-03-26T18:10:35.760Z,40.20
2019-03-26T18:13:50.185Z,40.00
2019-03-26T18:17:22.483Z,39.80
2019-03-26T18:20:44.834Z,40.20
2019-03-26T18:23:16.136Z,40.00
2019-03-26T18:25:44.763Z,40.30
2019-03-26T18:28:31.213Z,40.40
2019-03-26T18:31:03.100Z,41.60
2019-03-26T18:33:31.794Z,40.60
2019-03-26T18:36:06.939Z,41.60
2019-03-26T18:38:38.009Z,41.70
2019-03-26T18:41:14.153Z,42.00
2019-03-26T18:43:43.188Z,41.60
2019-03-26T18:46:12.136Z,42.00
2019-03-26T18:48:50.476Z,42.50
2019-03-26T18:51:34.478Z,42.60
2019-03-26T18:54:14.523Z,42.70
2019-03-26T18:56:55.288Z,43.10
2019-03-26T18:59:27.467Z,43.50
2019-03-26T19:01:58.992Z,43.80
2019-03-26T19:04:57.576Z,44.00
2019-03-26T19:07:45.585Z,43.80
2019-03-26T19:10:26.069Z,43.90
2019-03-26T19:12:59.991Z,44.60
2019-03-26T19:15:33.911Z,44.30
2019-03-26T19:18:02.547Z,45.30
2019-03-26T19:20:32.028Z,45.30
2019-03-26T19:23:03.357Z,46.40
2019-03-26T19:25:31.740Z,46.50
2019-03-26T19:28:31.987Z,45.80
2019-03-26T19:52:54.732Z,49.20
2019-03-26T19:55:22.897Z,50.40
2019-03-26T19:57:51.085Z,51.00
2019-03-26T20:00:21.047Z,52.00
2019-03-26T20:02:49.161Z,52.40
2019-03-26T20:05:17.301Z,52.80
2019-03-26T20:07:45.562Z,53.30
2019-03-26T20:10:14.086Z,53.30
2019-03-26T20:12:42.317Z,52.90
2019-03-26T20:15:11.410Z,52.30
2019-03-26T20:17:39.598Z,50.90
2019-03-26T20:20:08.619Z,52.00
2019-03-26T20:22:36.890Z,52.00
2019-03-26T20:25:05.531Z,52.00
2019-03-26T20:27:33.906Z,52.40
2019-03-26T20:30:35.332Z,52.50
2019-03-26T20:33:11.727Z,52.60
2019-03-26T20:35:40.001Z,51.90
2019-03-26T20:38:08.336Z,53.90
2019-03-26T20:40:36.421Z,54.60
2019-03-26T20:43:04.664Z,55.80
2019-03-26T20:45:32.860Z,55.80
2019-03-26T20:48:01.033Z,55.70
2019-03-26T20:50:29.405Z,56.50
2019-03-26T20:52:57.621Z,56.60
2019-03-26T20:55:34.871Z,56.60
2019-03-26T20:58:03.534Z,56.50
2019-03-26T21:00:39.041Z,56.90
2019-03-26T21:03:07.382Z,55.70
2019-03-26T21:05:35.698Z,57.30
2019-03-26T21:08:05.278Z,57.30
2019-03-26T21:10:33.548Z,56.90
2019-03-26T21:13:01.866Z,57.50
2019-03-26T21:15:30.089Z,57.30
2019-03-26T21:17:58.188Z,57.10
2019-03-26T21:20:26.410Z,57.20
2019-03-26T21:22:54.549Z,57.50
2019-03-26T21:25:22.674Z,57.50
2019-03-26T21:27:50.826Z,57.40
2019-03-26T21:30:19.110Z,57.80
2019-03-26T21:32:47.301Z,57.50
2019-03-26T21:35:15.642Z,58.30
2019-03-26T21:37:43.943Z,58.70
2019-03-26T21:40:12.189Z,58.70
2019-03-26T21:42:40.514Z,58.20
2019-03-26T21:45:09.435Z,58.80
2019-03-26T21:47:37.709Z,59.10
2019-03-26T21:50:06.481Z,58.50
2019-03-26T21:52:34.638Z,58.00
2019-03-26T21:55:03.083Z,58.10
2019-03-26T21:57:31.347Z,58.80
2019-03-26T21:59:59.684Z,60.30
2019-03-26T22:02:27.888Z,60.90
2019-03-26T22:04:56.187Z,61.50
2019-03-26T22:07:24.480Z,62.30
2019-03-26T22:09:52.729Z,62.20
2019-03-26T22:12:21.121Z,62.10
2019-03-26T22:14:49.524Z,61.70
2019-03-26T22:17:17.806Z,62.20
2019-03-26T22:19:46.193Z,63.20
2019-03-26T22:22:14.445Z,63.70
2019-03-26T22:24:42.846Z,62.80
2019-03-26T22:27:11.236Z,63.80
2019-03-26T22:29:39.687Z,63.60
2019-03-26T22:32:07.949Z,64.10
2019-03-26T22:34:36.205Z,63.90
2019-03-26T22:37:04.591Z,64.00
2019-03-26T22:39:32.795Z,64.00
2019-03-26T22:42:00.978Z,64.10
2019-03-26T22:44:31.513Z,64.50
2019-03-26T22:46:59.509Z,64.10
2019-03-26T22:49:27.764Z,63.70
2019-03-26T22:51:56.082Z,64.10
2019-03-26T22:54:24.481Z,62.70
2019-03-26T22:56:52.771Z,63.30
2019-03-26T22:59:21.126Z,64.00
2019-03-26T23:01:49.386Z,63.90
2019-03-26T23:04:20.003Z,65.40
2019-03-26T23:06:47.824Z,65.70
2019-03-26T23:09:16.335Z,66.30
2019-03-26T23:11:44.787Z,66.40
2019-03-26T23:14:13.370Z,66.80
2019-03-26T23:16:41.816Z,65.80
2019-03-26T23:19:10.358Z,64.10
2019-03-26T23:21:38.687Z,65.10
2019-03-26T23:24:07.235Z,64.20
2019-03-26T23:26:35.640Z,61.50
2019-03-26T23:29:04.157Z,62.20
2019-03-26T23:31:32.519Z,61.80
2019-03-26T23:34:00.784Z,62.40
2019-03-26T23:36:29.125Z,62.40
2019-03-26T23:38:57.503Z,62.60
2019-03-26T23:41:25.798Z,63.50
2019-03-26T23:43:54.102Z,64.00
2019-03-26T23:46:22.340Z,64.30
2019-03-26T23:48:50.665Z,64.90
2019-03-26T23:51:19.009Z,64.30
2019-03-26T23:53:47.674Z,65.00
2019-03-26T23:56:16.070Z,64.00
2019-03-26T23:58:44.401Z,64.30
